KFFA Airport (First Flight) Information

FAA: FFA - ICAO: KFFA

KFFA Airport Location

State North Carolina
County Dare
City Kill Devil Hills
KFFA Airport is 1 miles west of Kill Devil Hills, NC.
Latitude 36-01-03.3000N
Longitude 075-40-17.7000W
Elevation 11ft

KFFA Airport METARs

METAR KFFA 251615Z AUTO 14008KT 10SM SCT120 24/20 A2996 RMK AO2 T02390197
Altimeter 29.96"
Temperature 23.9°C (75.0°F)
Wind 140° at 8KT
Clouds scattered at 12,000ft
Visibility 10.0mi
Time observed: 2021-10-25T16:15:00Z

KFFA Airport Details

Status Operational
Activation N/A
Ownership Public
Usage Public
Chart WASHINGTON
ATC on-site No
Beacon schedule N/A
Beacon color N/A

KFFA Airport Contacts

Owner NATIONAL PARK SVC.
Owner address 1401 NATIONAL PARK DR., MANTEO, NC 27954-2708
Owner phone 252-473-2111
Manager COMMANDING OFFICER
Manager address MCAS NEW RIVER, JACKSONVILLE, NC 28540
Manager phone 910-449-6311

KFFA Airport (First Flight) Radio Frequencies

KFFA (Airport) Radio Frequencies

UNICOM N/A
Common traffic advisory frequency (CTAF) 122.9